createdAt,value
2019-04-14T00:07:07.975Z,21.60
2019-04-14T00:18:07.517Z,22.40
2019-04-14T00:29:06.879Z,25.10
2019-04-14T00:40:06.573Z,26.10
2019-04-14T00:51:06.973Z,25.70
2019-04-14T01:02:06.356Z,25.80
2019-04-14T01:13:09.568Z,24.60
2019-04-14T01:24:06.093Z,25.20
2019-04-14T01:35:05.965Z,25.10
2019-04-14T01:46:14.764Z,26.00
2019-04-14T01:57:06.681Z,21.90
2019-04-14T02:08:06.841Z,24.00
2019-04-14T02:19:06.627Z,24.50
2019-04-14T02:30:08.847Z,26.20
2019-04-14T03:03:30.582Z,25.30
2019-04-14T03:14:40.220Z,28.40
2019-04-14T03:25:22.672Z,27.00
2019-04-14T03:47:30.988Z,29.50
2019-04-14T03:58:05.936Z,28.60
2019-04-14T04:09:04.243Z,28.80
2019-04-14T04:20:05.115Z,28.70
2019-04-14T04:31:04.558Z,34.30
2019-04-14T04:42:04.829Z,33.30
2019-04-14T04:53:04.812Z,31.80
2019-04-14T05:04:04.585Z,31.20
2019-04-14T05:15:03.799Z,28.70
2019-04-14T05:26:03.390Z,31.20
2019-04-14T05:37:03.288Z,29.80
2019-04-14T05:48:03.340Z,30.50
2019-04-14T05:59:04.315Z,31.50
2019-04-14T06:10:02.899Z,26.30
2019-04-14T06:21:02.806Z,29.80
2019-04-14T06:32:02.659Z,30.40
2019-04-14T06:43:02.556Z,30.90
2019-04-14T06:54:02.421Z,28.00
2019-04-14T07:05:02.289Z,29.40
2019-04-14T07:16:02.170Z,31.90
2019-04-14T07:27:02.044Z,28.60
2019-04-14T07:38:02.014Z,27.70
2019-04-14T07:49:01.798Z,27.70
2019-04-14T08:00:01.695Z,28.70
2019-04-14T08:11:01.568Z,28.40
2019-04-14T08:22:01.449Z,27.40
2019-04-14T08:33:01.312Z,27.50
2019-04-14T08:44:01.264Z,25.20
2019-04-14T08:55:01.063Z,24.40
2019-04-14T09:06:00.957Z,24.60
2019-04-14T09:17:00.820Z,22.30
2019-04-14T09:28:00.704Z,22.90
2019-04-14T09:39:00.587Z,19.60
2019-04-14T09:50:00.456Z,20.80
2019-04-14T10:01:00.335Z,18.80
2019-04-14T10:12:00.229Z,18.50
2019-04-14T10:23:00.091Z,19.50
2019-04-14T10:33:59.988Z,16.20
2019-04-14T10:44:59.853Z,15.60
2019-04-14T10:55:59.726Z,18.00
2019-04-14T11:06:59.615Z,15.80
2019-04-14T11:17:59.483Z,16.90
2019-04-14T11:28:59.356Z,15.90
2019-04-14T11:39:59.249Z,14.60
2019-04-14T11:50:59.121Z,13.90
2019-04-14T12:01:58.988Z,13.40
2019-04-14T12:12:58.895Z,13.30
2019-04-14T12:23:58.757Z,12.60
2019-04-14T12:34:58.651Z,13.90
2019-04-14T12:45:58.504Z,16.10
2019-04-14T12:56:58.383Z,12.70
2019-04-14T13:07:58.263Z,13.10
2019-04-14T13:18:58.174Z,14.30
2019-04-14T13:29:58.022Z,11.80
2019-04-14T13:40:57.896Z,12.40
2019-04-14T13:51:57.777Z,13.30
2019-04-14T14:02:57.639Z,14.30
2019-04-14T14:13:57.534Z,14.00
2019-04-14T14:24:57.407Z,11.80
2019-04-14T14:35:57.278Z,12.80
2019-04-14T14:46:57.154Z,13.60
2019-04-14T14:57:57.038Z,12.80
2019-04-14T15:08:56.915Z,12.60
2019-04-14T15:19:56.793Z,11.40
2019-04-14T15:30:56.672Z,12.00
2019-04-14T15:41:56.555Z,13.00
2019-04-14T15:52:56.430Z,14.90
2019-04-14T16:03:56.378Z,14.20
2019-04-14T16:14:56.280Z,12.50
2019-04-14T16:25:56.127Z,10.10
2019-04-14T16:36:55.951Z,9.20
2019-04-14T16:47:55.836Z,10.40
2019-04-14T16:58:55.713Z,9.50
2019-04-14T17:09:55.583Z,9.00
2019-04-14T17:20:55.472Z,8.10
2019-04-14T17:31:55.333Z,8.30
2019-04-14T17:42:55.228Z,8.90
2019-04-14T17:53:55.104Z,9.00
2019-04-14T18:04:54.973Z,9.70
2019-04-14T18:15:54.851Z,10.00
2019-04-14T18:26:54.718Z,9.10
2019-04-14T18:37:54.598Z,6.80
2019-04-14T18:48:54.494Z,7.70
2019-04-14T18:59:54.360Z,7.50
2019-04-14T19:10:54.240Z,8.10
2019-04-14T19:21:54.109Z,8.00
2019-04-14T19:32:53.984Z,9.20
2019-04-14T19:43:53.861Z,8.80
2019-04-14T19:54:53.740Z,9.20
2019-04-14T20:05:53.621Z,8.70
2019-04-14T20:16:53.494Z,8.80
2019-04-14T20:27:53.378Z,9.60
2019-04-14T20:38:53.306Z,8.10
2019-04-14T20:49:53.125Z,7.30
2019-04-14T21:00:53.002Z,6.90
2019-04-14T21:11:52.890Z,8.60
2019-04-14T21:22:52.759Z,8.30
2019-04-14T21:33:52.637Z,7.20
2019-04-14T21:44:52.508Z,7.50
2019-04-14T21:55:52.400Z,7.00
2019-04-14T22:06:52.265Z,8.50
2019-04-14T22:17:52.153Z,8.10
2019-04-14T22:28:52.036Z,7.30
2019-04-14T22:39:51.901Z,6.90
2019-04-14T22:44:55.851Z,9.00
2019-04-14T22:53:45.860Z,9.10
2019-04-14T23:04:44.685Z,6.50
2019-04-14T23:15:44.559Z,8.00
2019-04-14T23:26:52.318Z,7.60
2019-04-14T23:37:44.308Z,7.40
2019-04-14T23:48:44.188Z,7.80
2019-04-14T23:59:44.062Z,7.10
